createdAt,value
2022-08-24T00:02:26.845Z,16.00
2022-08-24T00:04:53.834Z,16.10
2022-08-24T00:07:27.037Z,17.60
2022-08-24T00:09:55.143Z,16.80
2022-08-24T00:12:22.200Z,16.00
2022-08-24T00:14:49.399Z,16.80
2022-08-24T00:17:16.838Z,15.60
2022-08-24T00:19:43.845Z,17.20
2022-08-24T00:22:10.604Z,15.90
2022-08-24T00:24:37.316Z,16.10
2022-08-24T00:27:04.433Z,16.50
2022-08-24T00:29:31.219Z,15.70
2022-08-24T00:31:58.014Z,17.30
2022-08-24T00:34:26.507Z,16.70
2022-08-24T00:36:53.506Z,16.00
2022-08-24T00:39:20.528Z,16.10
2022-08-24T00:41:48.441Z,16.20
2022-08-24T00:44:16.822Z,16.00
2022-08-24T00:47:02.038Z,17.00
2022-08-24T00:49:37.897Z,15.90
2022-08-24T00:52:06.648Z,15.80
2022-08-24T00:54:36.300Z,15.80
2022-08-24T00:57:05.028Z,16.00
2022-08-24T00:59:36.112Z,15.80
2022-08-24T01:02:15.186Z,16.80
2022-08-24T01:04:49.173Z,16.00
2022-08-24T01:07:16.255Z,15.80
2022-08-24T01:09:42.964Z,15.80
2022-08-24T01:12:09.979Z,16.70
2022-08-24T01:14:37.843Z,16.90
2022-08-24T01:17:23.498Z,15.80
2022-08-24T01:19:51.294Z,15.80
2022-08-24T01:22:39.749Z,15.90
2022-08-24T01:25:07.032Z,15.90
2022-08-24T01:27:34.767Z,15.90
2022-08-24T01:30:02.076Z,17.30
2022-08-24T01:32:28.996Z,15.70
2022-08-24T01:34:56.641Z,16.20
2022-08-24T01:37:23.511Z,16.10
2022-08-24T01:39:52.136Z,15.50
2022-08-24T01:42:18.767Z,15.90
2022-08-24T01:44:46.059Z,15.70
2022-08-24T01:47:13.953Z,16.00
2022-08-24T01:49:42.667Z,14.90
2022-08-24T01:52:10.773Z,15.30
2022-08-24T01:54:39.008Z,14.90
2022-08-24T01:57:10.290Z,14.90
2022-08-24T01:59:37.150Z,17.10
2022-08-24T02:02:12.715Z,15.00
2022-08-24T02:04:39.392Z,14.90
2022-08-24T02:07:06.654Z,15.40
2022-08-24T02:09:33.913Z,17.00
2022-08-24T02:12:00.764Z,15.10
2022-08-24T02:14:30.665Z,15.80
2022-08-24T02:16:59.619Z,16.50
2022-08-24T02:19:27.253Z,14.80
2022-08-24T02:21:53.933Z,14.60
2022-08-24T02:24:20.638Z,16.70
2022-08-24T02:26:47.358Z,16.80
2022-08-24T02:29:13.975Z,14.40
2022-08-24T02:31:40.586Z,14.40
2022-08-24T02:34:07.311Z,16.50
2022-08-24T02:36:34.004Z,15.30
2022-08-24T02:39:00.669Z,14.30
2022-08-24T02:41:27.894Z,16.20
2022-08-24T02:43:55.469Z,14.30
2022-08-24T02:46:23.443Z,14.30
2022-08-24T02:48:56.807Z,15.40
2022-08-24T02:51:44.007Z,15.70
2022-08-24T02:54:12.873Z,14.20
2022-08-24T02:56:39.872Z,14.10
2022-08-24T02:59:06.941Z,14.00
2022-08-24T03:01:33.733Z,16.40
2022-08-24T03:04:00.367Z,15.60
2022-08-24T03:06:27.059Z,14.10
2022-08-24T03:08:56.631Z,14.20
2022-08-24T03:11:27.708Z,14.20
2022-08-24T03:13:55.455Z,14.20
2022-08-24T03:16:22.199Z,14.10
2022-08-24T03:18:48.801Z,14.00
2022-08-24T03:21:15.611Z,14.10
2022-08-24T03:23:42.218Z,14.80
2022-08-24T03:26:08.945Z,13.70
2022-08-24T03:28:35.636Z,13.80
2022-08-24T03:31:03.664Z,13.70
2022-08-24T03:33:30.348Z,13.80
2022-08-24T03:35:56.971Z,13.90
2022-08-24T03:38:23.702Z,14.00
2022-08-24T03:40:50.939Z,13.90
2022-08-24T03:43:36.760Z,14.70
2022-08-24T03:46:05.462Z,13.50
2022-08-24T03:48:32.110Z,13.40
2022-08-24T03:50:59.126Z,14.80
2022-08-24T03:53:25.768Z,13.40
2022-08-24T03:55:52.390Z,13.30
2022-08-24T03:58:19.043Z,13.40
2022-08-24T04:00:45.871Z,13.40
2022-08-24T04:03:12.886Z,13.50
2022-08-24T04:05:40.167Z,14.70
2022-08-24T04:08:07.212Z,13.60
2022-08-24T04:10:34.635Z,13.60
2022-08-24T04:13:01.652Z,13.60
2022-08-24T04:15:30.033Z,14.60
2022-08-24T04:17:56.771Z,13.60
2022-08-24T04:20:24.114Z,13.70
2022-08-24T04:22:51.437Z,13.80
2022-08-24T04:25:24.764Z,13.70
2022-08-24T04:27:51.887Z,13.80
2022-08-24T04:30:18.709Z,13.70
2022-08-24T04:32:45.330Z,13.70
2022-08-24T04:35:12.047Z,13.70
2022-08-24T04:37:38.723Z,14.70
2022-08-24T04:40:06.222Z,13.60
2022-08-24T04:42:33.386Z,13.60
2022-08-24T04:45:00.231Z,14.50
2022-08-24T04:47:26.871Z,13.60
2022-08-24T04:49:53.649Z,13.60
2022-08-24T04:52:21.438Z,13.70
2022-08-24T04:54:48.142Z,13.80
2022-08-24T04:57:18.138Z,13.90
2022-08-24T04:59:45.467Z,13.70
2022-08-24T05:02:12.403Z,16.20
2022-08-24T05:04:39.176Z,14.90
2022-08-24T05:07:05.801Z,13.80
2022-08-24T05:09:34.347Z,14.20
2022-08-24T05:12:01.887Z,15.10
2022-08-24T05:14:29.272Z,14.10
2022-08-24T05:16:56.286Z,14.30
2022-08-24T05:19:23.670Z,14.40
2022-08-24T05:21:50.461Z,14.50
2022-08-24T05:24:17.171Z,14.60
2022-08-24T05:26:43.770Z,16.50
2022-08-24T05:29:10.787Z,14.80
2022-08-24T05:31:39.870Z,14.80
2022-08-24T05:34:06.572Z,14.90
2022-08-24T05:36:34.344Z,15.00
2022-08-24T05:39:02.464Z,16.80
2022-08-24T05:41:29.430Z,15.20
2022-08-24T05:43:56.084Z,17.10
2022-08-24T05:46:22.908Z,15.40
2022-08-24T05:48:49.977Z,15.80
2022-08-24T05:51:20.540Z,16.80
2022-08-24T05:53:47.143Z,15.40
2022-08-24T05:56:15.348Z,15.70
2022-08-24T05:58:42.181Z,15.60
2022-08-24T06:01:13.701Z,15.80
2022-08-24T06:03:40.648Z,16.00
2022-08-24T06:06:08.573Z,16.20
2022-08-24T06:08:41.498Z,16.30
2022-08-24T06:11:08.921Z,17.30
2022-08-24T06:13:36.288Z,16.50
2022-08-24T06:16:20.290Z,16.60
2022-08-24T06:18:49.509Z,17.20
2022-08-24T06:21:17.652Z,15.20
2022-08-24T06:23:45.387Z,17.10
2022-08-24T06:26:31.222Z,18.00
2022-08-24T06:28:58.515Z,17.20
2022-08-24T06:31:25.331Z,17.30
2022-08-24T06:33:52.067Z,17.50
2022-08-24T06:36:18.746Z,17.40
2022-08-24T06:38:49.410Z,15.90
2022-08-24T06:41:16.897Z,18.50
2022-08-24T06:43:44.197Z,19.10
2022-08-24T06:46:10.883Z,17.80
2022-08-24T06:48:37.825Z,19.80
2022-08-24T06:51:08.449Z,18.70
2022-08-24T06:53:35.973Z,18.90
2022-08-24T06:56:02.943Z,18.40
2022-08-24T06:58:29.594Z,18.60
2022-08-24T07:00:57.012Z,18.80
2022-08-24T07:03:24.552Z,19.90
2022-08-24T07:05:52.920Z,19.00
2022-08-24T07:08:20.234Z,19.10
2022-08-24T07:10:46.833Z,20.40
2022-08-24T07:13:14.579Z,19.90
2022-08-24T07:15:44.821Z,19.30
2022-08-24T07:18:12.769Z,20.50
2022-08-24T07:20:39.529Z,19.50
2022-08-24T07:23:06.361Z,20.30
2022-08-24T07:25:33.727Z,19.60
2022-08-24T07:28:05.640Z,20.40
2022-08-24T07:30:35.047Z,19.80
2022-08-24T07:33:01.736Z,21.70
2022-08-24T07:35:28.922Z,22.40
2022-08-24T07:37:56.472Z,20.10
2022-08-24T07:40:23.811Z,21.10
2022-08-24T07:42:54.348Z,20.60
2022-08-24T07:45:21.221Z,20.40
2022-08-24T07:47:55.000Z,20.50
2022-08-24T07:50:22.306Z,20.40
2022-08-24T07:52:48.923Z,21.20
2022-08-24T07:55:15.831Z,20.60
2022-08-24T07:57:45.155Z,20.80
2022-08-24T08:00:13.268Z,22.60
2022-08-24T08:02:42.912Z,21.00
2022-08-24T08:05:10.353Z,21.40
2022-08-24T08:07:37.079Z,21.80
2022-08-24T08:10:04.064Z,21.50
2022-08-24T08:12:30.660Z,21.70
2022-08-24T08:14:57.805Z,21.90
2022-08-24T08:17:25.337Z,22.00
2022-08-24T08:19:52.001Z,22.20
2022-08-24T08:22:37.210Z,23.80
2022-08-24T08:25:07.984Z,22.40
2022-08-24T08:27:35.864Z,22.50
2022-08-24T08:30:06.350Z,22.60
2022-08-24T08:32:33.031Z,21.20
2022-08-24T08:35:02.143Z,22.80
2022-08-24T08:37:29.440Z,25.00
2022-08-24T08:39:56.182Z,23.00
2022-08-24T08:42:33.043Z,23.10
2022-08-24T08:44:59.816Z,23.20
2022-08-24T08:47:26.640Z,24.70
2022-08-24T08:50:05.349Z,26.10
2022-08-24T08:52:48.034Z,23.40
2022-08-24T08:55:24.148Z,23.50
2022-08-24T08:57:56.707Z,23.60
2022-08-24T09:00:32.013Z,23.70
2022-08-24T09:03:26.943Z,23.80
2022-08-24T09:06:02.452Z,23.90
2022-08-24T09:08:32.065Z,24.00
2022-08-24T09:11:22.060Z,24.10
2022-08-24T09:14:10.293Z,24.20
2022-08-24T09:16:55.623Z,24.40
2022-08-24T09:19:26.058Z,24.60
2022-08-24T09:22:02.368Z,24.80
2022-08-24T09:24:29.047Z,26.40
2022-08-24T09:27:10.283Z,25.10
2022-08-24T09:29:43.075Z,25.10
2022-08-24T09:32:21.217Z,25.20
2022-08-24T09:34:53.829Z,25.30
2022-08-24T09:37:20.427Z,25.40
2022-08-24T09:39:59.532Z,25.40
2022-08-24T09:42:40.888Z,25.50
2022-08-24T09:45:19.475Z,25.60
2022-08-24T09:47:49.371Z,25.70
2022-08-24T09:50:35.129Z,25.70
2022-08-24T09:53:03.403Z,25.80
2022-08-24T09:55:36.216Z,25.70
2022-08-24T09:58:05.959Z,25.80
2022-08-24T10:00:45.153Z,25.90
2022-08-24T10:03:17.851Z,26.00
2022-08-24T10:05:51.330Z,26.10
2022-08-24T10:08:18.376Z,26.20
2022-08-24T10:10:57.401Z,26.30
2022-08-24T10:13:38.374Z,26.40
2022-08-24T10:16:20.966Z,26.50
2022-08-24T10:19:01.246Z,26.40
2022-08-24T10:21:34.868Z,26.30
2022-08-24T10:24:01.483Z,26.40
2022-08-24T10:26:43.990Z,26.20
2022-08-24T10:29:31.631Z,26.30
2022-08-24T10:32:17.127Z,26.20
2022-08-24T10:34:52.139Z,26.50
2022-08-24T10:37:26.128Z,26.60
2022-08-24T10:40:09.403Z,26.60
2022-08-24T10:42:57.850Z,26.80
2022-08-24T10:45:31.383Z,26.80
2022-08-24T10:47:58.113Z,26.90
2022-08-24T10:50:31.483Z,26.90
2022-08-24T10:53:17.762Z,26.90
2022-08-24T10:55:44.695Z,26.90
2022-08-24T10:58:26.426Z,27.00
2022-08-24T11:00:53.200Z,26.90
2022-08-24T11:03:28.195Z,27.00
2022-08-24T11:05:56.144Z,27.10
2022-08-24T11:08:22.789Z,27.20
2022-08-24T11:11:07.774Z,28.60
2022-08-24T11:13:35.040Z,27.00
2022-08-24T11:16:02.378Z,26.90
2022-08-24T11:18:46.559Z,26.90
2022-08-24T11:21:19.831Z,28.20
2022-08-24T11:23:47.169Z,27.40
2022-08-24T11:26:20.058Z,28.40
2022-08-24T11:28:50.691Z,27.10
2022-08-24T11:31:22.570Z,27.10
2022-08-24T11:33:50.322Z,27.10
2022-08-24T11:36:21.315Z,27.30
2022-08-24T11:38:48.738Z,27.20
2022-08-24T11:41:20.680Z,27.10
2022-08-24T11:43:57.255Z,27.30
2022-08-24T11:46:28.873Z,27.40
2022-08-24T11:49:14.286Z,27.40
2022-08-24T11:51:59.362Z,27.60
2022-08-24T11:54:32.201Z,27.60
2022-08-24T11:57:10.686Z,27.50
2022-08-24T11:59:48.270Z,27.50
2022-08-24T12:02:22.909Z,27.60
2022-08-24T12:04:55.567Z,27.70
2022-08-24T12:07:37.243Z,28.30
2022-08-24T12:10:24.264Z,27.90
2022-08-24T12:12:54.543Z,27.90
2022-08-24T12:15:30.475Z,27.90
2022-08-24T12:18:08.593Z,30.30
2022-08-24T12:20:38.498Z,27.90
2022-08-24T12:23:08.739Z,27.90
2022-08-24T12:25:54.622Z,29.50
2022-08-24T12:28:24.368Z,27.80
2022-08-24T12:30:52.623Z,27.90
2022-08-24T12:33:23.004Z,28.00
2022-08-24T12:35:54.237Z,29.40
2022-08-24T12:38:20.987Z,28.00
2022-08-24T12:40:52.545Z,28.00
2022-08-24T12:43:36.070Z,28.00
2022-08-24T12:46:03.827Z,28.10
2022-08-24T12:48:34.145Z,28.10
2022-08-24T12:51:09.731Z,28.10
2022-08-24T12:53:51.260Z,28.10
2022-08-24T12:56:27.092Z,28.10
2022-08-24T12:58:59.907Z,29.00
2022-08-24T13:01:29.450Z,28.00
2022-08-24T13:04:16.133Z,28.20
2022-08-24T13:06:45.550Z,28.30
2022-08-24T13:09:30.903Z,28.40
2022-08-24T13:11:59.742Z,28.40
2022-08-24T13:14:28.580Z,28.40
2022-08-24T13:16:58.164Z,28.40
2022-08-24T13:19:33.973Z,28.40
2022-08-24T13:22:09.928Z,28.50
2022-08-24T13:24:38.505Z,28.40
2022-08-24T13:27:14.253Z,28.40
2022-08-24T13:29:43.850Z,28.40
2022-08-24T13:32:17.575Z,28.50
2022-08-24T13:34:46.333Z,28.50
2022-08-24T13:37:14.316Z,28.40
2022-08-24T13:39:45.713Z,28.40
2022-08-24T13:42:22.791Z,28.40
2022-08-24T13:44:49.459Z,28.30
2022-08-24T13:47:24.641Z,29.60
2022-08-24T13:50:03.672Z,28.40
2022-08-24T13:52:37.521Z,28.50
2022-08-24T13:55:09.356Z,28.60
2022-08-24T13:57:39.462Z,28.60
2022-08-24T14:00:16.476Z,28.40
2022-08-24T14:02:56.218Z,28.30
2022-08-24T14:05:27.578Z,28.20
2022-08-24T14:07:56.868Z,28.00
2022-08-24T14:10:32.737Z,27.90
2022-08-24T14:13:17.938Z,29.40
2022-08-24T14:15:51.319Z,27.90
2022-08-24T14:18:37.776Z,29.30
2022-08-24T14:21:09.106Z,27.80
2022-08-24T14:23:55.699Z,27.90
2022-08-24T14:26:40.818Z,27.90
2022-08-24T14:29:16.591Z,27.90
2022-08-24T14:31:59.985Z,27.90
2022-08-24T14:34:35.668Z,27.90
2022-08-24T14:37:18.589Z,28.00
2022-08-24T14:39:51.244Z,28.00
2022-08-24T14:42:38.197Z,28.00
2022-08-24T14:45:12.737Z,28.00
2022-08-24T14:47:50.523Z,28.10
2022-08-24T14:50:20.570Z,28.10
2022-08-24T14:52:47.231Z,28.20
2022-08-24T14:55:29.457Z,28.50
2022-08-24T14:58:05.246Z,28.20
2022-08-24T15:00:47.063Z,28.20
2022-08-24T15:03:32.396Z,28.20
2022-08-24T15:06:23.039Z,28.00
2022-08-24T15:08:45.880Z,28.10
2022-08-24T15:11:23.915Z,28.10
2022-08-24T15:13:58.583Z,28.00
2022-08-24T15:16:34.672Z,28.00
2022-08-24T15:19:11.662Z,28.00
2022-08-24T15:21:51.790Z,28.00
2022-08-24T15:27:14.045Z,27.90
2022-08-24T15:29:50.554Z,27.90
2022-08-24T15:32:17.225Z,27.90
2022-08-24T15:34:48.996Z,27.80
2022-08-24T15:37:24.769Z,27.80
2022-08-24T15:39:51.493Z,27.70
2022-08-24T15:42:18.328Z,27.60
2022-08-24T15:44:47.035Z,27.70
2022-08-24T15:47:17.719Z,27.70
2022-08-24T15:49:50.071Z,27.60
2022-08-24T15:52:37.167Z,27.80
2022-08-24T15:55:04.898Z,27.60
2022-08-24T15:57:35.259Z,27.60
2022-08-24T16:00:07.069Z,27.60
2022-08-24T16:02:36.776Z,27.50
2022-08-24T16:05:09.332Z,27.40
2022-08-24T16:07:54.873Z,27.50
2022-08-24T16:10:40.301Z,27.50
2022-08-24T16:13:19.519Z,27.50
2022-08-24T16:15:46.698Z,27.40
2022-08-24T16:18:14.155Z,27.40
2022-08-24T16:20:40.913Z,27.30
2022-08-24T16:23:10.286Z,29.40
2022-08-24T16:25:42.933Z,27.20
2022-08-24T16:28:20.153Z,27.10
2022-08-24T16:30:50.089Z,26.90
2022-08-24T16:33:33.136Z,27.00
2022-08-24T16:36:00.787Z,27.00
2022-08-24T16:38:30.505Z,26.90
2022-08-24T16:40:58.232Z,26.80
2022-08-24T16:43:25.009Z,26.70
2022-08-24T16:45:51.997Z,26.70
2022-08-24T16:48:18.920Z,26.70
2022-08-24T16:50:50.535Z,26.60
2022-08-24T16:53:17.688Z,28.20
2022-08-24T16:55:44.369Z,26.50
2022-08-24T16:58:11.213Z,26.60
2022-08-24T17:00:37.820Z,26.60
2022-08-24T17:03:04.485Z,26.60
2022-08-24T17:05:31.208Z,26.50
2022-08-24T17:07:59.072Z,27.10
2022-08-24T17:10:26.243Z,26.50
2022-08-24T17:12:53.242Z,26.50
2022-08-24T17:15:20.444Z,27.60
2022-08-24T17:18:05.022Z,26.50
2022-08-24T17:20:32.124Z,26.50
2022-08-24T17:22:58.819Z,26.50
2022-08-24T17:25:26.012Z,26.40
2022-08-24T17:27:53.818Z,26.40
2022-08-24T17:30:22.950Z,26.30
2022-08-24T17:32:51.457Z,26.30
2022-08-24T17:35:19.992Z,26.20
2022-08-24T17:37:50.984Z,26.20
2022-08-24T17:40:20.070Z,26.10
2022-08-24T17:42:51.115Z,26.00
2022-08-24T17:45:18.579Z,26.40
2022-08-24T17:47:46.004Z,25.80
2022-08-24T17:50:13.337Z,25.90
2022-08-24T17:52:40.616Z,25.80
2022-08-24T17:55:09.475Z,25.70
2022-08-24T17:57:36.535Z,25.70
2022-08-24T18:00:04.086Z,25.60
2022-08-24T18:02:31.164Z,25.60
2022-08-24T18:04:57.938Z,25.60
2022-08-24T18:07:49.458Z,25.50
2022-08-24T18:10:19.239Z,25.40
2022-08-24T18:12:46.485Z,26.90
2022-08-24T18:15:13.454Z,25.20
2022-08-24T18:17:42.047Z,25.30
2022-08-24T18:20:09.904Z,25.00
2022-08-24T18:22:36.812Z,24.90
2022-08-24T18:25:03.716Z,24.90
2022-08-24T18:27:31.073Z,27.30
2022-08-24T18:30:03.052Z,24.70
2022-08-24T18:32:30.943Z,24.60
2022-08-24T18:34:58.769Z,24.50
2022-08-24T18:37:25.360Z,24.50
2022-08-24T18:39:52.082Z,24.40
2022-08-24T18:42:18.780Z,25.40
2022-08-24T18:44:45.585Z,25.90
2022-08-24T18:47:12.186Z,26.40
2022-08-24T18:49:38.965Z,24.60
2022-08-24T18:52:07.176Z,24.80
2022-08-24T18:54:36.332Z,24.00
2022-08-24T18:57:04.198Z,24.20
2022-08-24T18:59:30.836Z,23.80
2022-08-24T19:02:16.241Z,24.30
2022-08-24T19:04:44.829Z,24.00
2022-08-24T19:07:11.478Z,25.30
2022-08-24T19:09:38.230Z,23.60
2022-08-24T19:12:05.586Z,23.60
2022-08-24T19:14:32.900Z,23.50
2022-08-24T19:16:59.829Z,23.60
2022-08-24T19:19:26.539Z,23.50
2022-08-24T19:21:53.429Z,23.40
2022-08-24T19:24:24.063Z,23.40
2022-08-24T19:26:50.696Z,25.50
2022-08-24T19:29:33.195Z,25.10
2022-08-24T19:32:06.016Z,23.30
2022-08-24T19:34:37.014Z,23.30
2022-08-24T19:37:04.652Z,23.30
2022-08-24T19:39:31.480Z,23.10
2022-08-24T19:41:58.769Z,24.60
2022-08-24T19:44:51.960Z,23.10
2022-08-24T19:47:18.763Z,23.10
2022-08-24T19:49:45.731Z,23.20
2022-08-24T19:52:13.409Z,24.10
2022-08-24T19:54:42.901Z,23.60
2022-08-24T19:57:29.089Z,23.00
2022-08-24T19:59:58.436Z,23.60
2022-08-24T20:02:25.223Z,25.50
2022-08-24T20:04:51.907Z,24.10
2022-08-24T20:07:18.799Z,22.80
2022-08-24T20:09:45.455Z,22.80
2022-08-24T20:12:12.381Z,22.80
2022-08-24T20:14:39.102Z,22.80
2022-08-24T20:17:05.785Z,22.70
2022-08-24T20:19:34.550Z,24.30
2022-08-24T20:22:01.160Z,25.50
2022-08-24T20:24:29.737Z,22.60
2022-08-24T20:26:56.433Z,24.80
2022-08-24T20:29:23.264Z,24.00
2022-08-24T20:31:52.316Z,24.80
2022-08-24T20:34:18.977Z,22.40
2022-08-24T20:36:48.147Z,22.30
2022-08-24T20:39:17.905Z,22.20
2022-08-24T20:41:45.298Z,22.50
2022-08-24T20:44:11.985Z,21.90
2022-08-24T20:46:39.801Z,21.70
2022-08-24T20:49:07.366Z,23.80
2022-08-24T20:51:34.315Z,21.50
2022-08-24T20:54:05.638Z,21.60
2022-08-24T20:56:33.411Z,21.00
2022-08-24T20:59:11.104Z,20.90
2022-08-24T21:01:38.697Z,20.70
2022-08-24T21:04:05.762Z,20.70
2022-08-24T21:06:32.977Z,20.50
2022-08-24T21:09:00.127Z,21.70
2022-08-24T21:11:26.787Z,20.30
2022-08-24T21:13:53.448Z,22.80
2022-08-24T21:16:20.091Z,21.30
2022-08-24T21:18:47.187Z,22.70
2022-08-24T21:21:14.236Z,22.10
2022-08-24T21:23:41.009Z,20.00
2022-08-24T21:26:10.266Z,21.70
2022-08-24T21:28:40.765Z,20.10
2022-08-24T21:31:07.654Z,19.90
2022-08-24T21:33:53.470Z,19.90
2022-08-24T21:36:21.203Z,19.80
2022-08-24T21:38:48.176Z,19.80
2022-08-24T21:41:15.729Z,19.90
2022-08-24T21:43:42.369Z,19.90
2022-08-24T21:46:09.259Z,21.30
2022-08-24T21:48:37.080Z,19.90
2022-08-24T21:51:03.678Z,20.40
2022-08-24T21:53:30.281Z,19.80
2022-08-24T21:56:00.260Z,20.10
2022-08-24T21:58:27.331Z,20.60
2022-08-24T22:00:58.861Z,20.10
2022-08-24T22:03:31.723Z,20.70
2022-08-24T22:06:07.924Z,19.40
2022-08-24T22:08:34.894Z,19.30
2022-08-24T22:11:01.540Z,19.30
2022-08-24T22:13:28.206Z,19.40
2022-08-24T22:15:54.879Z,19.20
2022-08-24T22:18:21.576Z,19.20
2022-08-24T22:20:48.228Z,19.10
2022-08-24T22:23:14.854Z,19.10
2022-08-24T22:25:41.452Z,19.60
2022-08-24T22:28:08.368Z,19.10
2022-08-24T22:30:35.033Z,19.10
2022-08-24T22:33:02.440Z,19.00
2022-08-24T22:35:29.220Z,18.90
2022-08-24T22:37:58.556Z,20.20
2022-08-24T22:40:25.288Z,19.00
2022-08-24T22:42:52.851Z,18.80
2022-08-24T22:45:20.012Z,19.50
2022-08-24T22:47:46.670Z,19.00
2022-08-24T22:50:13.308Z,19.70
2022-08-24T22:52:40.053Z,20.60
2022-08-24T22:55:06.969Z,18.70
2022-08-24T22:57:34.464Z,18.60
2022-08-24T23:00:01.407Z,19.10
2022-08-24T23:02:28.036Z,21.30
2022-08-24T23:04:54.711Z,18.50
2022-08-24T23:07:21.519Z,19.30
2022-08-24T23:09:48.294Z,18.40
2022-08-24T23:12:16.763Z,19.50
2022-08-24T23:14:43.529Z,19.90
2022-08-24T23:17:10.762Z,18.50
2022-08-24T23:19:56.150Z,18.30
2022-08-24T23:22:22.946Z,19.00
2022-08-24T23:24:49.661Z,19.30
2022-08-24T23:27:17.185Z,18.60
2022-08-24T23:29:44.592Z,18.40
2022-08-24T23:32:11.896Z,18.00
2022-08-24T23:34:38.832Z,19.60
2022-08-24T23:37:05.492Z,18.30
2022-08-24T23:39:32.091Z,18.90
2022-08-24T23:41:58.779Z,18.40
2022-08-24T23:44:27.027Z,17.90
2022-08-24T23:46:53.980Z,19.10
2022-08-24T23:49:21.244Z,18.70
2022-08-24T23:51:48.420Z,18.90
2022-08-24T23:54:16.163Z,19.80
2022-08-24T23:56:44.025Z,18.70
2022-08-24T23:59:13.967Z,19.70
